Time;durP1;ratioP1;P1;durP2;ratioP2;P2;SDS_P1;SDS_P2;PMS_P1;PMS_P2;Temp;Humidity;BMP_temperature;BMP_pressure;BME280_temperature;BME280_humidity;BME280_pressure;Samples;Min_cycle;Max_cycle;Signal;HPM_P1;HPM_P2
2021/04/19 00:00:11;;;;;;;28.40;20.83;;;5.80;99.90;;;;;;2072421;28;20452;-71
2021/04/19 00:01:12;;;;;;;26.42;20.25;;;5.80;99.90;;;;;;2065178;28;20441;-71
2021/04/19 00:02:13;;;;;;;28.48;21.65;;;5.80;99.90;;;;;;2056471;28;20117;-71
2021/04/19 00:03:14;;;;;;;30.55;22.70;;;5.80;99.90;;;;;;2064585;28;20386;-70
2021/04/19 00:04:15;;;;;;;31.40;23.30;;;5.80;99.90;;;;;;2072704;28;20029;-71
2021/04/19 00:05:18;;;;;;;29.58;21.88;;;5.70;99.90;;;;;;2072627;28;20037;-70
2021/04/19 00:06:19;;;;;;;30.10;21.83;;;5.70;99.90;;;;;;2079993;28;20035;-71
2021/04/19 00:07:20;;;;;;;28.38;21.30;;;5.70;99.90;;;;;;2072294;28;20520;-70
2021/04/19 00:08:21;;;;;;;27.42;20.48;;;5.70;99.90;;;;;;2072499;28;20041;-70
2021/04/19 00:09:21;;;;;;;25.67;19.58;;;5.70;99.90;;;;;;2080618;28;20144;-71
2021/04/19 00:10:23;;;;;;;25.10;19.30;;;5.70;99.90;;;;;;2072311;28;20220;-70
2021/04/19 00:11:23;;;;;;;25.63;19.13;;;5.60;99.90;;;;;;2072335;28;20455;-70
2021/04/19 00:12:24;;;;;;;27.25;18.55;;;5.60;99.90;;;;;;2065634;28;20046;-70
2021/04/19 00:13:25;;;;;;;23.33;18.15;;;5.60;99.90;;;;;;2072200;28;20083;-70
2021/04/19 00:14:26;;;;;;;25.52;18.90;;;5.60;99.90;;;;;;2080356;28;20041;-71
2021/04/19 00:15:30;;;;;;;24.75;18.60;;;5.60;99.90;;;;;;2071992;28;20037;-71
2021/04/19 00:16:30;;;;;;;27.80;19.33;;;5.60;99.90;;;;;;2072013;28;20038;-71
2021/04/19 00:17:32;;;;;;;25.83;19.35;;;5.60;99.90;;;;;;2080176;28;20053;-70
2021/04/19 00:18:33;;;;;;;24.92;19.05;;;5.60;99.90;;;;;;2080083;28;20820;-71
2021/04/19 00:19:33;;;;;;;25.95;19.27;;;5.60;99.90;;;;;;2080488;28;20112;-71
2021/04/19 00:20:34;;;;;;;24.23;18.42;;;5.60;99.90;;;;;;2080713;28;20014;-73
2021/04/19 00:21:35;;;;;;;24.38;18.30;;;5.60;99.90;;;;;;2080544;28;20025;-70
2021/04/19 00:22:36;;;;;;;23.73;18.25;;;5.60;99.90;;;;;;2064037;28;20469;-71
2021/04/19 00:23:37;;;;;;;25.60;18.90;;;5.60;99.90;;;;;;2072246;28;20112;-71
2021/04/19 00:24:37;;;;;;;23.85;18.50;;;5.60;99.90;;;;;;2067881;28;20036;-71
2021/04/19 00:25:38;;;;;;;23.90;17.92;;;5.60;99.90;;;;;;2072390;28;20028;-71
2021/04/19 00:26:39;;;;;;;23.30;18.05;;;5.60;99.90;;;;;;2063876;28;20030;-71
2021/04/19 00:27:40;;;;;;;24.25;17.73;;;5.60;99.90;;;;;;2071934;28;20033;-70
2021/04/19 00:28:41;;;;;;;24.38;17.40;;;5.60;99.90;;;;;;2071856;28;20029;-70
2021/04/19 00:29:41;;;;;;;22.17;17.15;;;5.60;99.90;;;;;;2072440;28;20030;-71
2021/04/19 00:30:42;;;;;;;23.65;18.15;;;5.60;99.90;;;;;;2072746;28;20076;-71
2021/04/19 00:31:43;;;;;;;23.13;17.33;;;5.60;99.90;;;;;;2072687;28;20018;-71
2021/04/19 00:32:43;;;;;;;22.90;17.27;;;5.60;99.90;;;;;;2072199;28;20444;-70
2021/04/19 00:33:44;;;;;;;21.00;16.83;;;5.60;99.90;;;;;;2072336;28;20014;-71
2021/04/19 00:34:45;;;;;;;20.35;16.17;;;5.60;99.90;;;;;;2072899;28;20022;-71
2021/04/19 00:35:45;;;;;;;18.77;15.57;;;5.60;99.90;;;;;;2072978;28;20397;-71
2021/04/19 00:36:46;;;;;;;19.40;15.95;;;5.60;99.90;;;;;;2072864;28;20452;-71
2021/04/19 00:37:47;;;;;;;20.63;15.50;;;5.60;99.90;;;;;;2072270;28;20057;-71
2021/04/19 00:38:48;;;;;;;20.50;15.90;;;5.60;99.90;;;;;;2072396;28;20122;-71
2021/04/19 00:39:48;;;;;;;21.48;16.80;;;5.60;99.90;;;;;;2072577;28;20120;-71
2021/04/19 00:40:53;;;;;;;21.08;15.90;;;5.50;99.90;;;;;;2080838;28;20034;-71
2021/04/19 00:41:53;;;;;;;20.17;16.05;;;5.50;99.90;;;;;;2072417;28;20493;-71
2021/04/19 00:42:54;;;;;;;20.85;16.67;;;5.50;99.90;;;;;;2067176;28;20027;-71
2021/04/19 00:43:55;;;;;;;20.60;16.00;;;5.50;99.90;;;;;;2071119;28;20041;-71
2021/04/19 00:44:55;;;;;;;21.42;16.92;;;5.50;99.90;;;;;;2067657;28;20037;-69
2021/04/19 00:46:02;;;;;;;22.55;17.63;;;5.50;99.90;;;;;;2070465;28;20105;-70
2021/04/19 00:47:03;;;;;;;23.20;17.50;;;5.50;99.90;;;;;;2072236;28;20060;-70
2021/04/19 00:48:05;;;;;;;22.95;17.92;;;5.50;99.90;;;;;;2064268;28;20030;-70
2021/04/19 00:49:06;;;;;;;22.55;17.20;;;5.50;99.90;;;;;;2072119;28;20022;-70
2021/04/19 00:50:10;;;;;;;21.85;17.38;;;5.50;99.90;;;;;;2074190;28;20033;-70
2021/04/19 00:51:11;;;;;;;23.13;18.00;;;5.50;99.90;;;;;;2072309;28;20025;-70
2021/04/19 00:52:11;;;;;;;25.63;19.50;;;5.50;99.90;;;;;;2064739;28;20057;-71
2021/04/19 00:53:14;;;;;;;24.52;18.40;;;5.50;99.90;;;;;;2072208;28;20037;-71
2021/04/19 00:54:15;;;;;;;23.92;17.67;;;5.50;99.90;;;;;;2071940;28;20025;-70
2021/04/19 00:55:16;;;;;;;24.23;18.35;;;5.50;99.90;;;;;;2072209;28;20030;-70
2021/04/19 00:56:17;;;;;;;23.92;18.10;;;5.50;99.90;;;;;;2071820;28;20120;-72
2021/04/19 00:57:18;;;;;;;23.90;17.98;;;5.50;99.90;;;;;;2072484;28;20045;-71
2021/04/19 00:58:24;;;;;;;23.80;18.30;;;5.60;99.90;;;;;;2073491;28;20014;-70
2021/04/19 00:59:24;;;;;;;27.50;19.83;;;5.60;99.90;;;;;;2073507;28;20055;-71
2021/04/19 01:00:30;;;;;;;28.35;20.20;;;5.60;99.90;;;;;;2071716;28;20053;-71
2021/04/19 01:01:33;;;;;;;31.42;21.17;;;5.60;99.90;;;;;;2067454;28;20018;-71
2021/04/19 01:02:34;;;;;;;33.15;21.45;;;5.60;99.90;;;;;;2069330;28;20033;-71
2021/04/19 01:03:35;;;;;;;31.40;21.42;;;5.60;99.90;;;;;;2067089;28;20025;-71
2021/04/19 01:04:36;;;;;;;33.22;21.88;;;5.60;99.90;;;;;;2063792;28;20089;-71
2021/04/19 01:05:40;;;;;;;33.05;22.50;;;5.60;99.90;;;;;;2063824;28;20023;-70
2021/04/19 01:06:41;;;;;;;33.22;21.92;;;5.60;99.90;;;;;;2067815;28;20045;-71
2021/04/19 01:07:42;;;;;;;40.58;24.13;;;5.50;99.90;;;;;;2071727;28;20025;-70
2021/04/19 01:08:43;;;;;;;36.20;22.67;;;5.50;99.90;;;;;;2071907;28;20032;-70
2021/04/19 01:09:44;;;;;;;35.88;22.70;;;5.50;99.90;;;;;;2067867;28;20478;-70
2021/04/19 01:10:45;;;;;;;37.33;23.92;;;5.50;99.90;;;;;;2071892;28;20036;-70
2021/04/19 01:11:47;;;;;;;35.13;22.40;;;5.50;99.90;;;;;;2068024;28;20521;-71
2021/04/19 01:12:49;;;;;;;37.40;23.33;;;5.50;99.90;;;;;;2076650;28;20021;-70
2021/04/19 01:13:51;;;;;;;36.53;22.80;;;5.50;99.90;;;;;;2079968;28;20472;-70
2021/04/19 01:14:52;;;;;;;36.10;23.30;;;5.50;99.90;;;;;;2080082;28;20052;-71
2021/04/19 01:15:53;;;;;;;38.47;23.98;;;5.50;99.90;;;;;;2072108;28;20478;-70
2021/04/19 01:16:54;;;;;;;35.13;22.70;;;5.50;99.90;;;;;;2072005;28;20029;-71
2021/04/19 01:17:54;;;;;;;38.67;24.70;;;5.50;99.90;;;;;;2071964;28;20097;-71
2021/04/19 01:18:56;;;;;;;37.53;24.05;;;5.60;99.90;;;;;;2072427;28;20021;-72
2021/04/19 01:19:57;;;;;;;34.80;23.02;;;5.60;99.90;;;;;;2072760;28;20018;-71
2021/04/19 01:20:58;;;;;;;35.45;23.38;;;5.60;99.90;;;;;;2071838;28;20574;-71
2021/04/19 01:22:02;;;;;;;36.03;24.30;;;5.60;99.90;;;;;;2072315;28;20033;-71
2021/04/19 01:23:03;;;;;;;35.47;24.17;;;5.60;99.90;;;;;;2071940;28;20517;-71
2021/04/19 01:24:04;;;;;;;37.17;24.55;;;5.60;99.90;;;;;;2072193;28;20100;-70
2021/04/19 01:25:07;;;;;;;37.17;24.90;;;5.70;99.90;;;;;;2071445;28;20509;-71
2021/04/19 01:26:08;;;;;;;34.83;24.45;;;5.70;99.90;;;;;;2064389;28;20022;-72
2021/04/19 01:27:09;;;;;;;35.53;24.45;;;5.70;99.90;;;;;;2079529;28;20623;-72
2021/04/19 01:28:10;;;;;;;35.30;24.58;;;5.70;99.90;;;;;;2080305;28;20053;-71
2021/04/19 01:29:11;;;;;;;36.58;24.83;;;5.70;99.90;;;;;;2072638;28;20030;-71
2021/04/19 01:30:15;;;;;;;33.95;23.85;;;5.70;99.90;;;;;;2071698;28;20037;-72
2021/04/19 01:31:16;;;;;;;34.88;24.33;;;5.70;99.90;;;;;;2072087;28;20440;-73
2021/04/19 01:32:17;;;;;;;34.28;23.88;;;5.70;99.90;;;;;;2073009;28;20083;-71
2021/04/19 01:33:19;;;;;;;38.13;25.48;;;5.80;99.90;;;;;;2072772;28;20052;-71
2021/04/19 01:34:19;;;;;;;36.83;24.73;;;5.80;99.90;;;;;;2072673;28;20396;-71
2021/04/19 01:35:20;;;;;;;35.25;24.60;;;5.80;99.90;;;;;;2071947;28;20038;-72
2021/04/19 01:36:23;;;;;;;35.05;24.50;;;5.80;99.90;;;;;;2071472;28;20117;-71
2021/04/19 01:37:24;;;;;;;34.65;24.90;;;5.80;99.90;;;;;;2079817;28;20025;-72
2021/04/19 01:38:26;;;;;;;36.95;25.45;;;5.80;99.90;;;;;;2080500;28;20040;-72
2021/04/19 01:39:27;;;;;;;34.53;24.60;;;5.80;99.90;;;;;;2073485;28;20011;-71
2021/04/19 01:40:28;;;;;;;33.50;23.98;;;5.80;99.90;;;;;;2071878;28;20021;-72
2021/04/19 01:41:30;;;;;;;32.40;23.35;;;5.80;99.90;;;;;;2066269;28;20018;-72
2021/04/19 01:42:30;;;;;;;35.58;24.67;;;5.80;99.90;;;;;;2066655;28;20018;-72
2021/04/19 01:43:31;;;;;;;35.03;24.55;;;5.80;99.90;;;;;;2068974;28;20061;-71
2021/04/19 01:44:38;;;;;;;34.88;24.42;;;5.90;99.90;;;;;;2070973;28;20030;-71
2021/04/19 01:45:39;;;;;;;34.63;24.75;;;5.90;99.90;;;;;;2068752;28;20026;-71
2021/04/19 01:46:40;;;;;;;36.90;25.20;;;5.90;99.90;;;;;;2073114;28;20022;-71
2021/04/19 01:47:42;;;;;;;37.53;25.60;;;5.90;99.90;;;;;;2073076;28;20026;-71
2021/04/19 01:48:43;;;;;;;37.08;25.65;;;5.90;99.90;;;;;;2073169;28;20026;-71
2021/04/19 01:49:43;;;;;;;35.45;24.52;;;5.90;99.90;;;;;;2081459;28;20565;-72
2021/04/19 01:50:44;;;;;;;38.30;25.92;;;5.90;99.90;;;;;;2081242;28;20031;-70
2021/04/19 01:51:47;;;;;;;38.50;26.00;;;5.90;99.90;;;;;;2081145;28;20014;-72
2021/04/19 01:52:49;;;;;;;38.45;25.25;;;6.00;99.90;;;;;;2069136;28;20026;-72
2021/04/19 01:53:50;;;;;;;39.60;25.85;;;5.90;99.90;;;;;;2070202;28;20033;-71
2021/04/19 01:54:51;;;;;;;38.22;26.23;;;5.90;99.90;;;;;;2072764;28;20856;-72
2021/04/19 01:55:52;;;;;;;40.15;27.05;;;6.00;99.90;;;;;;2073408;28;20025;-71
2021/04/19 01:56:53;;;;;;;36.83;25.60;;;6.00;99.90;;;;;;2072855;28;20113;-71
2021/04/19 01:58:17;;;;;;;37.15;25.55;;;6.00;99.90;;;;;;2073065;28;20425;-71
2021/04/19 01:59:18;;;;;;;37.38;24.80;;;6.00;99.90;;;;;;2081149;28;20017;-72
2021/04/19 02:00:23;;;;;;;36.97;25.50;;;6.00;99.90;;;;;;2073191;28;20080;-71
2021/04/19 02:01:28;;;;;;;35.97;24.20;;;6.00;99.90;;;;;;2074102;28;20022;-71
2021/04/19 02:02:37;;;;;;;39.17;24.95;;;6.00;99.90;;;;;;2081622;28;20013;-72
2021/04/19 02:04:02;;;;;;;36.13;24.38;;;6.10;99.90;;;;;;2073626;28;20087;-71
2021/04/19 02:05:32;;;;;;;35.85;23.70;;;6.10;99.90;;;;;;2065240;28;20049;-72
2021/04/19 02:07:06;;;;;;;34.88;23.35;;;6.10;99.90;;;;;;2068010;28;20609;-71
2021/04/19 02:08:31;;;;;;;33.95;23.17;;;6.10;99.90;;;;;;2066331;28;20477;-71
2021/04/19 02:10:00;;;;;;;38.78;24.52;;;6.10;99.90;;;;;;2066177;28;20019;-71
2021/04/19 02:11:13;;;;;;;34.47;22.88;;;6.10;99.90;;;;;;2065753;28;20161;-71
2021/04/19 02:12:39;;;;;;;36.22;23.75;;;6.10;99.90;;;;;;2065322;28;20027;-71
2021/04/19 02:13:49;;;;;;;37.35;24.45;;;6.10;99.90;;;;;;2072823;28;20144;-72
2021/04/19 02:15:05;;;;;;;34.08;22.85;;;6.20;99.90;;;;;;2077215;28;20021;-71
2021/04/19 02:16:31;;;;;;;37.25;23.75;;;6.20;99.90;;;;;;2072690;28;20018;-72
2021/04/19 02:18:14;;;;;;;36.88;23.45;;;6.20;99.90;;;;;;2067761;28;20031;-71
2021/04/19 02:19:35;;;;;;;36.72;23.40;;;6.20;99.90;;;;;;2069742;28;20557;-71
2021/04/19 02:20:53;;;;;;;38.15;23.20;;;6.30;99.90;;;;;;2081118;28;20052;-71
2021/04/19 02:22:05;;;;;;;34.65;22.33;;;6.20;99.90;;;;;;2079074;28;20017;-71
2021/04/19 02:23:15;;;;;;;35.72;23.50;;;6.20;99.90;;;;;;2072995;28;20472;-71
2021/04/19 02:24:21;;;;;;;34.60;23.05;;;6.20;99.90;;;;;;2072708;28;20018;-72
2021/04/19 02:25:37;;;;;;;32.95;21.67;;;6.30;99.90;;;;;;2073174;28;20038;-71
2021/04/19 02:26:44;;;;;;;35.03;22.58;;;6.20;99.90;;;;;;2073373;28;20863;-71
2021/04/19 02:27:49;;;;;;;55.13;23.60;;;6.20;99.90;;;;;;2080965;28;20370;-71
2021/04/19 02:29:00;;;;;;;35.08;22.40;;;6.20;99.90;;;;;;2081068;28;20064;-71
2021/04/19 02:30:07;;;;;;;33.75;21.90;;;6.20;99.90;;;;;;2079770;28;20037;-71
2021/04/19 02:31:13;;;;;;;31.80;21.10;;;6.20;99.90;;;;;;2073592;28;20030;-71
2021/04/19 02:32:21;;;;;;;31.17;21.50;;;6.20;99.90;;;;;;2072724;28;20382;-72
2021/04/19 02:33:22;;;;;;;31.40;21.10;;;6.20;99.90;;;;;;2073032;28;20021;-71
2021/04/19 02:34:27;;;;;;;33.78;21.33;;;6.20;99.90;;;;;;2073471;28;20477;-71
2021/04/19 02:35:31;;;;;;;31.10;20.42;;;6.20;99.90;;;;;;2073356;28;20034;-71
2021/04/19 02:36:49;;;;;;;35.30;21.35;;;6.20;99.90;;;;;;2072540;28;20061;-71
2021/04/19 02:37:56;;;;;;;32.70;21.20;;;6.20;99.90;;;;;;2074160;28;20029;-71
2021/04/19 02:39:00;;;;;;;31.80;20.83;;;6.20;99.90;;;;;;2072800;28;20050;-72
2021/04/19 02:40:02;;;;;;;31.83;21.55;;;6.20;99.90;;;;;;2072841;28;20104;-71
2021/04/19 02:41:08;;;;;;;34.00;21.75;;;6.20;99.90;;;;;;2072757;28;20022;-71
2021/04/19 02:42:10;;;;;;;34.17;21.73;;;6.20;99.90;;;;;;2073276;28;20026;-71
2021/04/19 02:43:11;;;;;;;35.40;22.27;;;6.20;99.90;;;;;;2081003;28;20151;-71
2021/04/19 02:44:16;;;;;;;36.33;22.55;;;6.20;99.90;;;;;;2072767;28;20029;-71
2021/04/19 02:45:37;;;;;;;35.28;22.60;;;6.20;99.90;;;;;;2073263;28;20112;-71
2021/04/19 02:46:51;;;;;;;36.03;23.25;;;6.20;99.90;;;;;;2073516;28;20480;-71
2021/04/19 02:47:52;;;;;;;36.22;22.58;;;6.20;99.90;;;;;;2073208;28;20050;-71
2021/04/19 02:49:05;;;;;;;36.30;23.30;;;6.20;99.90;;;;;;2080932;28;20021;-71
2021/04/19 02:50:07;;;;;;;33.10;21.98;;;6.20;99.90;;;;;;2072730;28;20026;-71
2021/04/19 02:51:09;;;;;;;33.15;22.48;;;6.20;99.90;;;;;;2071887;28;20030;-71
2021/04/19 02:52:12;;;;;;;32.85;22.35;;;6.10;99.90;;;;;;2073204;28;20125;-71
2021/04/19 02:53:14;;;;;;;36.45;23.50;;;6.10;99.90;;;;;;2065103;28;20047;-72
2021/04/19 02:54:15;;;;;;;38.25;23.90;;;6.10;99.90;;;;;;2073249;28;20029;-71
2021/04/19 02:55:19;;;;;;;33.33;22.15;;;6.10;99.90;;;;;;2072779;28;20041;-72
2021/04/19 02:56:20;;;;;;;35.08;22.38;;;6.10;99.90;;;;;;2072891;28;20157;-71
2021/04/19 02:57:27;;;;;;;34.75;23.08;;;6.10;99.90;;;;;;2072482;28;20513;-71
2021/04/19 02:58:40;;;;;;;34.13;22.23;;;6.10;99.90;;;;;;2073407;28;20169;-72
2021/04/19 02:59:40;;;;;;;34.15;22.63;;;6.10;99.90;;;;;;2079351;28;20062;-70
2021/04/19 03:00:47;;;;;;;37.92;23.38;;;6.10;99.90;;;;;;2072565;28;20018;-71
2021/04/19 03:01:52;;;;;;;39.10;23.52;;;6.10;99.90;;;;;;2072729;28;20041;-71
2021/04/19 03:02:56;;;;;;;34.60;22.52;;;6.10;99.90;;;;;;2073225;28;20481;-71
2021/04/19 03:04:01;;;;;;;34.42;22.67;;;6.10;99.90;;;;;;2072458;28;20157;-71
2021/04/19 03:05:06;;;;;;;33.47;22.05;;;6.10;99.90;;;;;;2072673;28;20379;-72
2021/04/19 03:06:09;;;;;;;35.38;22.73;;;6.10;99.90;;;;;;2080173;28;20036;-71
2021/04/19 03:07:14;;;;;;;32.58;21.35;;;6.10;99.90;;;;;;2072273;28;20053;-72
2021/04/19 03:08:22;;;;;;;32.20;21.23;;;6.10;99.90;;;;;;2072575;28;20498;-71
2021/04/19 03:09:26;;;;;;;33.80;21.25;;;6.10;99.90;;;;;;2073138;28;20080;-71
2021/04/19 03:10:31;;;;;;;37.75;22.63;;;6.10;99.90;;;;;;2072535;28;20208;-72
2021/04/19 03:12:01;;;;;;;34.28;22.00;;;6.00;99.90;;;;;;2064370;28;20546;-71
2021/04/19 03:13:07;;;;;;;34.40;20.90;;;6.00;99.90;;;;;;2063186;28;20538;-71
2021/04/19 03:14:10;;;;;;;35.08;21.45;;;6.10;99.90;;;;;;2072435;28;20070;-71
2021/04/19 03:15:35;;;;;;;34.22;20.70;;;6.00;99.90;;;;;;2073153;28;20144;-71
2021/04/19 03:16:59;;;;;;;35.60;20.95;;;6.00;99.90;;;;;;2073266;28;20085;-71
2021/04/19 03:18:17;;;;;;;37.85;21.02;;;6.10;99.90;;;;;;2072325;28;20157;-71
2021/04/19 03:19:26;;;;;;;35.08;21.08;;;6.10;99.90;;;;;;2072302;28;20021;-71
2021/04/19 03:20:42;;;;;;;37.58;22.77;;;6.10;99.90;;;;;;2072801;28;20022;-72
2021/04/19 03:21:49;;;;;;;35.60;21.73;;;6.00;99.90;;;;;;2073561;28;20025;-71
2021/04/19 03:22:54;;;;;;;35.17;21.00;;;6.10;99.90;;;;;;2073759;28;20025;-72
2021/04/19 03:24:00;;;;;;;37.45;22.13;;;6.10;99.90;;;;;;2075065;28;20018;-71
2021/04/19 03:25:24;;;;;;;37.40;21.70;;;6.10;99.90;;;;;;2066694;28;20085;-71
2021/04/19 03:26:29;;;;;;;33.90;20.70;;;6.10;99.90;;;;;;2073097;28;20083;-71
2021/04/19 03:27:32;;;;;;;35.40;21.30;;;6.10;99.90;;;;;;2080784;28;20532;-71
2021/04/19 03:28:40;;;;;;;35.25;21.23;;;6.10;99.90;;;;;;2081083;28;20040;-71
2021/04/19 03:29:49;;;;;;;;;;;6.00;99.90;;;;;;2073579;28;20029;-72
2021/04/19 03:30:53;;;;;;;37.05;20.33;;;6.10;99.90;;;;;;2073560;28;19929;-72
2021/04/19 03:32:09;;;;;;;35.28;20.75;;;6.00;99.90;;;;;;2080127;28;20465;-71
2021/04/19 03:33:16;;;;;;;35.53;21.17;;;6.00;99.90;;;;;;2073448;28;20108;-71
2021/04/19 03:34:22;;;;;;;33.13;20.80;;;6.00;99.90;;;;;;2073227;28;20405;-71
2021/04/19 03:35:30;;;;;;;35.05;21.10;;;6.00;99.90;;;;;;2072433;28;20080;-71
2021/04/19 03:36:34;;;;;;;35.30;20.98;;;6.00;99.90;;;;;;2073143;28;20033;-71
2021/04/19 03:37:39;;;;;;;30.85;19.27;;;6.00;99.90;;;;;;2064018;28;20033;-71
2021/04/19 03:38:41;;;;;;;37.05;21.67;;;6.00;99.90;;;;;;2064569;28;20022;-71
2021/04/19 03:39:48;;;;;;;33.15;20.65;;;6.00;99.90;;;;;;2072417;28;20024;-71
2021/04/19 03:40:51;;;;;;;34.38;20.30;;;6.00;99.90;;;;;;2073119;28;20021;-71
2021/04/19 03:41:58;;;;;;;33.08;20.13;;;6.00;99.90;;;;;;2072492;28;20028;-71
2021/04/19 03:43:09;;;;;;;35.78;20.52;;;6.10;99.90;;;;;;2066376;28;20085;-71
2021/04/19 03:44:14;;;;;;;31.85;19.63;;;6.10;99.90;;;;;;2080710;28;20052;-71
2021/04/19 03:45:17;;;;;;;34.08;20.23;;;6.10;99.90;;;;;;2080650;28;20025;-71
2021/04/19 03:46:40;;;;;;;38.95;22.23;;;6.10;99.90;;;;;;2076540;28;20560;-71
2021/04/19 03:47:49;;;;;;;35.05;21.23;;;6.10;99.90;;;;;;2067489;28;20117;-71
2021/04/19 03:49:07;;;;;;;36.00;21.00;;;6.10;99.90;;;;;;2070492;28;20026;-71
2021/04/19 03:50:22;;;;;;;38.75;22.08;;;6.10;99.90;;;;;;2080410;28;20052;-72
2021/04/19 03:51:31;;;;;;;35.85;20.95;;;6.10;99.90;;;;;;2079557;28;20611;-70
2021/04/19 03:52:35;;;;;;;38.10;21.80;;;6.10;99.90;;;;;;2080162;28;20029;-70
2021/04/19 03:53:38;;;;;;;37.38;21.67;;;6.20;99.90;;;;;;2072157;28;20540;-70
2021/04/19 03:54:44;;;;;;;37.17;21.80;;;6.20;99.90;;;;;;2070770;28;20025;-70
2021/04/19 03:55:48;;;;;;;37.92;21.52;;;6.20;99.90;;;;;;2079225;28;20025;-69
2021/04/19 03:56:51;;;;;;;34.85;21.00;;;6.20;99.90;;;;;;2072155;28;20675;-69
2021/04/19 03:57:56;;;;;;;37.13;21.45;;;6.20;99.90;;;;;;2067150;28;20512;-70
2021/04/19 03:59:08;;;;;;;37.13;21.45;;;6.20;99.90;;;;;;2077941;28;20440;-70
2021/04/19 04:00:18;;;;;;;38.28;21.90;;;6.20;99.90;;;;;;2073351;28;20029;-70
2021/04/19 04:01:20;;;;;;;35.70;20.63;;;6.20;99.90;;;;;;2079892;28;20076;-70
2021/04/19 04:02:28;;;;;;;37.70;22.00;;;6.20;99.90;;;;;;2072096;28;20026;-70
2021/04/19 04:03:44;;;;;;;39.35;22.02;;;6.20;99.90;;;;;;2074170;28;20037;-71
2021/04/19 04:05:18;;;;;;;39.65;21.70;;;6.20;99.90;;;;;;2047700;29;20031;-70
2021/04/19 04:06:43;;;;;;;40.40;22.25;;;6.20;99.90;;;;;;2068019;28;20058;-70
2021/04/19 04:07:45;;;;;;;38.10;21.80;;;6.20;99.90;;;;;;2072550;28;20026;-69
2021/04/19 04:08:52;;;;;;;39.05;21.80;;;6.20;99.90;;;;;;2072187;28;20061;-69
2021/04/19 04:09:55;;;;;;;39.30;22.48;;;6.20;99.90;;;;;;2072339;28;20030;-70
2021/04/19 04:10:55;;;;;;;39.65;22.45;;;6.20;99.90;;;;;;2080007;28;20041;-70
2021/04/19 04:11:56;;;;;;;35.10;20.92;;;6.20;99.90;;;;;;2071980;28;20065;-70
2021/04/19 04:13:06;;;;;;;38.72;21.20;;;6.20;99.90;;;;;;2073266;28;20017;-70
2021/04/19 04:14:11;;;;;;;39.53;22.40;;;6.30;99.90;;;;;;2080376;28;20471;-70
2021/04/19 04:15:14;;;;;;;40.33;22.38;;;6.30;99.90;;;;;;2080255;28;20083;-69
2021/04/19 04:16:20;;;;;;;39.20;22.13;;;6.30;99.90;;;;;;2079894;28;20577;-70
2021/04/19 04:17:41;;;;;;;37.55;21.33;;;6.30;99.90;;;;;;2077723;28;20032;-70
2021/04/19 04:18:49;;;;;;;38.28;21.08;;;6.30;99.90;;;;;;2072912;28;20469;-70
2021/04/19 04:19:50;;;;;;;38.97;21.48;;;6.30;99.90;;;;;;2072357;28;20037;-70
2021/04/19 04:20:53;;;;;;;36.60;21.80;;;6.30;99.90;;;;;;2067240;28;20022;-70
2021/04/19 04:21:58;;;;;;;37.08;21.92;;;6.30;99.90;;;;;;2077876;28;20028;-70
2021/04/19 04:23:08;;;;;;;41.80;21.77;;;6.30;99.90;;;;;;2072334;28;20395;-70
2021/04/19 04:24:11;;;;;;;55.53;23.63;;;6.30;99.90;;;;;;2064273;28;20118;-70
2021/04/19 04:25:13;;;;;;;38.78;22.50;;;6.30;99.90;;;;;;2071837;28;20018;-70
2021/04/19 04:26:13;;;;;;;42.38;23.63;;;6.30;99.90;;;;;;2064076;28;20042;-70
2021/04/19 04:27:15;;;;;;;40.03;22.67;;;6.30;99.90;;;;;;2072127;28;20190;-69
2021/04/19 04:28:17;;;;;;;39.42;22.55;;;6.30;99.90;;;;;;2072603;28;20029;-70
2021/04/19 04:29:39;;;;;;;39.70;22.20;;;6.30;99.90;;;;;;2072023;28;20841;-70
2021/04/19 04:30:58;;;;;;;38.55;21.92;;;6.30;99.90;;;;;;2064112;28;20030;-70
2021/04/19 04:32:08;;;;;;;41.95;22.58;;;6.30;99.90;;;;;;2071629;28;20553;-69
2021/04/19 04:33:09;;;;;;;41.28;22.98;;;6.30;99.90;;;;;;2072055;28;20026;-70
2021/04/19 04:34:13;;;;;;;41.00;22.75;;;6.30;99.90;;;;;;2072460;28;20116;-71
2021/04/19 04:35:17;;;;;;;39.08;21.92;;;6.30;99.90;;;;;;2071821;28;20042;-70
2021/04/19 04:36:22;;;;;;;39.35;21.98;;;6.30;99.90;;;;;;2063928;28;20118;-70
2021/04/19 04:37:30;;;;;;;40.47;22.35;;;6.30;99.90;;;;;;2071927;28;20022;-70
2021/04/19 04:38:44;;;;;;;43.08;22.48;;;6.30;99.90;;;;;;2071819;28;20040;-69
2021/04/19 04:39:50;;;;;;;41.05;22.40;;;6.40;99.90;;;;;;2072505;28;20101;-70
2021/04/19 04:40:51;;;;;;;43.90;23.52;;;6.30;99.90;;;;;;2079988;28;20075;-69
2021/04/19 04:41:52;;;;;;;41.15;22.30;;;6.40;99.90;;;;;;2080022;28;20815;-70
2021/04/19 04:43:16;;;;;;;42.42;22.42;;;6.40;99.90;;;;;;2072481;28;20037;-69
2021/04/19 04:44:24;;;;;;;47.22;23.85;;;6.40;99.90;;;;;;2072354;28;20493;-70
2021/04/19 04:45:26;;;;;;;45.60;22.85;;;6.40;99.90;;;;;;2072421;28;20109;-70
2021/04/19 04:46:55;;;;;;;42.58;22.90;;;6.40;99.90;;;;;;2071955;28;20018;-70
2021/04/19 04:48:26;;;;;;;43.47;22.77;;;6.40;99.90;;;;;;2079873;28;20029;-72
2021/04/19 04:50:05;;;;;;;48.40;23.42;;;6.30;99.90;;;;;;2076354;28;20060;-72
2021/04/19 04:51:16;;;;;;;46.42;22.85;;;6.30;99.90;;;;;;2046195;28;20379;-70
2021/04/19 04:52:19;;;;;;;49.13;23.85;;;6.30;99.90;;;;;;2071267;28;20048;-70
2021/04/19 04:53:33;;;;;;;45.40;22.85;;;6.30;99.90;;;;;;2071756;28;20034;-70
2021/04/19 04:54:36;;;;;;;46.03;23.05;;;6.40;99.90;;;;;;2071402;28;20367;-70
2021/04/19 04:55:38;;;;;;;46.45;23.88;;;6.40;99.90;;;;;;2072232;28;20040;-70
2021/04/19 04:56:43;;;;;;;43.08;22.92;;;6.40;99.90;;;;;;2071790;28;20097;-70
2021/04/19 04:57:45;;;;;;;43.38;22.65;;;6.40;99.90;;;;;;2072170;28;20108;-69
2021/04/19 04:58:50;;;;;;;42.67;22.80;;;6.40;99.90;;;;;;2079692;28;20075;-70
2021/04/19 04:59:52;;;;;;;43.08;22.73;;;6.40;99.90;;;;;;2079310;28;20044;-70
2021/04/19 05:00:54;;;;;;;44.30;23.90;;;6.40;99.90;;;;;;2072301;28;20026;-70
2021/04/19 05:01:57;;;;;;;46.17;23.77;;;6.40;99.90;;;;;;2072269;28;20036;-70
2021/04/19 05:02:58;;;;;;;41.72;22.90;;;6.50;99.90;;;;;;2072213;28;20065;-71
2021/04/19 05:04:00;;;;;;;43.55;23.00;;;6.50;99.90;;;;;;2072139;28;20052;-71
2021/04/19 05:05:01;;;;;;;42.47;23.23;;;6.50;99.90;;;;;;2072148;28;20036;-70
2021/04/19 05:06:02;;;;;;;45.38;24.58;;;6.50;99.90;;;;;;2071235;28;20420;-70
2021/04/19 05:07:03;;;;;;;41.83;23.58;;;6.50;99.90;;;;;;2071304;28;20029;-71
2021/04/19 05:08:04;;;;;;;40.67;23.15;;;6.50;99.90;;;;;;2070203;28;20525;-71
2021/04/19 05:09:09;;;;;;;40.03;22.70;;;6.50;99.90;;;;;;2071469;28;20034;-70
2021/04/19 05:10:12;;;;;;;42.35;22.70;;;6.50;99.90;;;;;;2079158;28;20033;-70
2021/04/19 05:11:14;;;;;;;40.13;22.70;;;6.50;99.90;;;;;;2072139;28;20773;-71
2021/04/19 05:12:16;;;;;;;38.75;22.05;;;6.50;99.90;;;;;;2072119;28;20105;-70
2021/04/19 05:13:17;;;;;;;37.45;21.90;;;6.60;99.90;;;;;;2072227;28;20061;-70
2021/04/19 05:14:24;;;;;;;39.85;22.90;;;6.60;99.90;;;;;;2071142;28;20033;-70
2021/04/19 05:15:26;;;;;;;39.70;22.73;;;6.60;99.90;;;;;;2063455;28;20173;-71
2021/04/19 05:16:28;;;;;;;40.42;22.90;;;6.60;99.90;;;;;;2061139;28;20030;-70
2021/04/19 05:17:29;;;;;;;40.53;22.70;;;6.60;99.90;;;;;;2066134;28;20455;-69
2021/04/19 05:18:30;;;;;;;37.38;22.13;;;6.60;99.90;;;;;;2072168;28;20032;-71
2021/04/19 05:19:30;;;;;;;41.72;24.27;;;6.60;99.90;;;;;;2072096;28;20034;-71
2021/04/19 05:20:31;;;;;;;40.45;24.17;;;6.60;99.90;;;;;;2072017;28;20053;-70
2021/04/19 05:21:33;;;;;;;36.63;22.33;;;6.70;99.90;;;;;;2071349;28;20084;-70
2021/04/19 05:22:34;;;;;;;40.42;23.00;;;6.70;99.90;;;;;;2071340;28;20551;-70
2021/04/19 05:23:35;;;;;;;39.97;23.00;;;6.70;99.90;;;;;;2067141;28;20025;-70
2021/04/19 05:24:36;;;;;;;41.13;23.95;;;6.70;99.90;;;;;;2071774;28;20053;-70
2021/04/19 05:25:37;;;;;;;39.33;22.58;;;6.70;99.90;;;;;;2072290;28;20433;-71
2021/04/19 05:26:37;;;;;;;45.33;25.45;;;6.80;99.90;;;;;;2079214;28;20021;-69
2021/04/19 05:27:38;;;;;;;41.70;24.48;;;6.80;99.90;;;;;;2079583;28;20029;-70
2021/04/19 05:28:40;;;;;;;42.30;23.83;;;6.80;99.90;;;;;;2072092;28;20045;-70
2021/04/19 05:29:41;;;;;;;41.08;23.98;;;6.90;99.90;;;;;;2071965;28;20478;-71
2021/04/19 05:30:44;;;;;;;40.72;23.95;;;6.90;99.90;;;;;;2071285;28;20098;-69
2021/04/19 05:31:45;;;;;;;41.15;23.98;;;6.90;99.90;;;;;;2071241;28;20033;-69
2021/04/19 05:32:46;;;;;;;39.15;23.50;;;7.00;99.90;;;;;;2067518;28;20022;-71
2021/04/19 05:33:47;;;;;;;41.10;24.35;;;7.00;99.90;;;;;;2071369;28;20532;-70
2021/04/19 05:34:51;;;;;;;43.38;25.83;;;7.00;99.90;;;;;;2079466;28;20049;-72
2021/04/19 05:35:52;;;;;;;42.80;26.17;;;7.00;99.90;;;;;;2071650;28;20049;-70
2021/04/19 05:36:53;;;;;;;42.05;25.35;;;7.00;99.90;;;;;;2072029;28;20228;-69